Time;durP1;ratioP1;P1;durP2;ratioP2;P2;SDS_P1;SDS_P2;PMS_P1;PMS_P2;Temp;Humidity;BMP_temperature;BMP_pressure;BME280_temperature;BME280_humidity;BME280_pressure;Samples;Min_cycle;Max_cycle;Signal;HPM_P1;HPM_P2
2022/11/08 00:04:00;;;;;;;2.90;2.05;;;20.20;51.30;;;;;;5011067;28;20200;-56
2022/11/08 00:14:55;;;;;;;3.08;2.25;;;20.30;51.10;;;;;;5011013;28;20199;-60
2022/11/08 00:17:27;;;;;;;2.67;2.13;;;20.40;51.10;;;;;;5010527;28;20188;-60
2022/11/08 00:19:58;;;;;;;3.67;1.77;;;20.40;51.10;;;;;;5010155;28;20585;-56
2022/11/08 00:22:31;;;;;;;5.00;2.38;;;20.40;51.00;;;;;;5010174;28;20708;-59
2022/11/08 00:25:02;;;;;;;4.57;1.88;;;20.40;51.00;;;;;;5010981;28;20201;-55
2022/11/08 00:27:34;;;;;;;4.82;1.90;;;20.40;51.00;;;;;;5009705;28;20663;-59
2022/11/08 00:30:05;;;;;;;3.17;2.20;;;20.50;51.10;;;;;;5030177;28;20235;-56
2022/11/08 00:32:36;;;;;;;2.88;2.08;;;20.50;51.00;;;;;;5026431;28;20211;-59
2022/11/08 00:35:07;;;;;;;3.50;1.83;;;20.50;51.00;;;;;;5019012;28;20197;-59
2022/11/08 00:37:38;;;;;;;4.20;2.17;;;20.50;50.90;;;;;;5010137;28;20575;-57
2022/11/08 00:40:09;;;;;;;2.40;1.70;;;20.50;50.90;;;;;;5012179;28;20217;-59
2022/11/08 00:42:42;;;;;;;3.83;1.80;;;20.60;50.90;;;;;;5013805;28;20197;-58
2022/11/08 00:47:42;;;;;;;4.40;1.80;;;20.60;50.90;;;;;;4993625;28;20217;-46
2022/11/08 00:50:13;;;;;;;3.55;1.80;;;20.60;50.90;;;;;;4995036;28;20248;-46
2022/11/08 00:52:44;;;;;;;4.25;1.63;;;20.70;50.90;;;;;;4994521;28;20726;-45
2022/11/08 00:55:15;;;;;;;3.65;1.80;;;20.70;50.80;;;;;;4994818;28;20208;-51
2022/11/08 00:57:47;;;;;;;3.40;1.88;;;20.70;50.80;;;;;;4994577;28;20201;-47
2022/11/08 01:00:18;;;;;;;3.92;1.60;;;20.70;50.80;;;;;;4994268;28;20225;-46
2022/11/08 01:03:17;;;;;;;3.88;1.83;;;20.80;50.80;;;;;;4994861;28;20189;-45
2022/11/08 01:05:40;;;;;;;2.95;1.70;;;20.80;50.80;;;;;;4993852;28;20193;-46
2022/11/08 01:08:11;;;;;;;3.85;1.90;;;20.80;50.80;;;;;;4994673;28;20199;-47
2022/11/08 01:10:44;;;;;;;2.95;1.65;;;20.80;50.80;;;;;;4994222;28;20585;-50
2022/11/08 01:13:17;;;;;;;4.13;1.75;;;20.80;50.70;;;;;;4995036;28;20217;-50
2022/11/08 01:15:49;;;;;;;3.80;1.55;;;20.90;50.70;;;;;;4994106;28;20298;-50
2022/11/08 01:18:21;;;;;;;2.65;1.63;;;20.90;50.70;;;;;;4994521;28;20645;-49
2022/11/08 01:20:52;;;;;;;2.90;1.63;;;20.90;50.70;;;;;;4993689;28;20575;-45
2022/11/08 01:23:23;;;;;;;2.17;1.60;;;21.00;50.70;;;;;;4973842;28;20558;-47
2022/11/08 01:25:53;;;;;;;3.65;1.67;;;21.00;50.70;;;;;;4975305;28;20198;-43
2022/11/08 01:28:26;;;;;;;4.70;2.13;;;21.00;50.70;;;;;;4974684;28;20194;-44
2022/11/08 01:30:57;;;;;;;4.20;2.08;;;21.10;50.60;;;;;;4974246;28;20209;-43
2022/11/08 01:33:28;;;;;;;2.58;1.58;;;21.10;50.60;;;;;;4974505;28;20203;-43
2022/11/08 01:35:58;;;;;;;2.55;1.38;;;21.10;50.50;;;;;;4974103;28;20686;-43
2022/11/08 01:38:29;;;;;;;3.42;1.88;;;21.10;50.50;;;;;;4999436;28;20488;-45
2022/11/08 01:41:00;;;;;;;4.32;1.85;;;21.10;50.50;;;;;;4994036;28;20205;-43
2022/11/08 01:43:40;;;;;;;2.90;2.00;;;21.10;50.50;;;;;;4993093;28;20646;-43
2022/11/08 01:46:37;;;;;;;3.63;1.63;;;21.20;50.50;;;;;;5017018;23;20450;-60
2022/11/08 01:49:29;;;;;;;3.63;1.55;;;21.20;50.50;;;;;;5007518;28;20221;-54
2022/11/08 01:52:12;;;;;;;3.70;1.60;;;21.20;50.40;;;;;;4995294;28;20430;-61
2022/11/08 01:54:48;;;;;;;2.58;1.60;;;21.30;50.40;;;;;;5012287;28;20675;-61
2022/11/08 01:57:22;;;;;;;4.35;1.88;;;21.30;50.40;;;;;;5003887;28;20193;-54
2022/11/08 01:59:56;;;;;;;3.67;1.70;;;21.30;50.40;;;;;;4993556;28;20581;-59
2022/11/08 02:02:28;;;;;;;3.08;1.83;;;21.30;50.30;;;;;;4992910;28;20204;-58
2022/11/08 02:04:59;;;;;;;2.85;1.60;;;21.40;50.30;;;;;;4993767;28;20204;-58
2022/11/08 02:07:32;;;;;;;4.28;1.77;;;21.40;50.30;;;;;;4997747;28;20219;-53
2022/11/08 02:10:04;;;;;;;3.60;1.70;;;21.40;50.20;;;;;;5012602;28;20232;-56
2022/11/08 02:12:34;;;;;;;2.67;1.40;;;21.50;50.20;;;;;;5012296;28;20197;-55
2022/11/08 02:15:08;;;;;;;3.13;1.33;;;21.50;50.10;;;;;;5012107;28;20215;-58
2022/11/08 02:17:39;;;;;;;2.78;1.60;;;21.50;50.10;;;;;;5012153;28;20193;-53
2022/11/08 02:20:10;;;;;;;3.05;1.63;;;21.60;50.10;;;;;;5011408;28;20217;-59
2022/11/08 02:22:48;;;;;;;2.88;1.60;;;21.60;50.00;;;;;;5011969;28;20193;-55
2022/11/08 02:25:22;;;;;;;4.10;1.70;;;21.70;50.00;;;;;;5012853;28;20201;-48
2022/11/08 02:27:52;;;;;;;3.17;1.73;;;21.70;50.00;;;;;;5012110;28;20744;-61
2022/11/08 02:30:23;;;;;;;3.63;1.67;;;21.70;49.80;;;;;;5012496;28;20240;-58
2022/11/08 02:32:54;;;;;;;2.03;1.20;;;21.80;49.80;;;;;;5012147;28;20193;-56
2022/11/08 02:35:25;;;;;;;2.83;1.67;;;21.80;49.70;;;;;;5007628;28;20193;-57
2022/11/08 02:37:56;;;;;;;2.17;1.48;;;21.80;49.70;;;;;;5008579;28;20203;-54
2022/11/08 02:40:29;;;;;;;2.03;1.50;;;21.80;49.60;;;;;;5011474;28;20217;-61
2022/11/08 02:43:00;;;;;;;2.78;1.55;;;21.90;49.50;;;;;;5011909;28;20196;-52
2022/11/08 02:45:30;;;;;;;4.53;1.42;;;21.90;49.40;;;;;;5012044;28;20197;-56
2022/11/08 02:48:01;;;;;;;3.03;1.60;;;22.00;49.40;;;;;;5012364;28;20201;-61
2022/11/08 02:50:32;;;;;;;2.80;1.25;;;22.00;49.30;;;;;;5012262;28;20243;-53
2022/11/08 02:53:02;;;;;;;2.70;1.60;;;22.00;49.20;;;;;;5011838;28;20200;-51
2022/11/08 02:55:36;;;;;;;1.50;1.20;;;22.10;49.20;;;;;;5011785;28;20197;-57
2022/11/08 02:58:07;;;;;;;3.92;1.50;;;22.10;49.10;;;;;;5011327;28;20554;-51
2022/11/08 03:00:38;;;;;;;2.90;1.58;;;22.10;49.00;;;;;;5011019;28;20332;-55
2022/11/08 03:03:09;;;;;;;2.95;1.60;;;22.20;48.90;;;;;;5010228;28;20648;-52
2022/11/08 03:05:41;;;;;;;1.45;1.10;;;22.20;48.90;;;;;;5011224;28;20197;-56
2022/11/08 03:08:12;;;;;;;3.22;1.45;;;22.20;48.70;;;;;;5011217;28;20201;-55
2022/11/08 03:10:44;;;;;;;2.17;1.45;;;22.30;48.60;;;;;;5011706;28;20232;-54
2022/11/08 03:13:15;;;;;;;2.88;1.05;;;22.30;48.40;;;;;;5011007;28;20188;-55
2022/11/08 03:15:46;;;;;;;2.42;1.65;;;22.30;48.30;;;;;;5011715;28;20200;-56
2022/11/08 03:18:17;;;;;;;1.85;1.00;;;22.40;48.20;;;;;;4999154;28;20197;-55
2022/11/08 03:20:47;;;;;;;2.67;1.40;;;22.40;48.20;;;;;;4991812;28;20221;-51
2022/11/08 03:23:19;;;;;;;2.33;1.20;;;22.40;48.30;;;;;;5004785;28;20656;-50
2022/11/08 03:25:52;;;;;;;3.65;1.42;;;22.50;48.30;;;;;;5011561;28;20197;-61
2022/11/08 03:28:23;;;;;;;3.53;1.40;;;22.50;48.20;;;;;;5010798;28;20602;-53
2022/11/08 03:30:54;;;;;;;3.25;1.45;;;22.50;48.10;;;;;;5011002;28;20228;-57
2022/11/08 03:33:28;;;;;;;1.58;1.00;;;22.60;48.10;;;;;;5010322;28;20196;-60
2022/11/08 03:35:58;;;;;;;3.53;1.02;;;22.60;47.90;;;;;;5011108;28;20202;-58
2022/11/08 03:38:29;;;;;;;2.65;1.10;;;22.70;47.80;;;;;;5011129;28;20207;-56
2022/11/08 03:41:02;;;;;;;3.75;1.25;;;22.70;47.70;;;;;;5010464;28;20230;-55
2022/11/08 03:43:33;;;;;;;2.90;1.48;;;22.70;47.50;;;;;;4997640;28;20205;-48
2022/11/08 03:46:04;;;;;;;2.45;1.42;;;22.70;47.50;;;;;;5012643;23;20227;-48
2022/11/08 03:48:34;;;;;;;3.85;1.80;;;22.80;47.40;;;;;;5031073;28;20193;-45
2022/11/08 03:51:05;;;;;;;5.45;2.30;;;22.80;47.30;;;;;;5030425;28;20224;-45
2022/11/08 03:53:36;;;;;;;6.88;2.65;;;22.80;47.10;;;;;;5030304;28;20699;-44
2022/11/08 03:56:09;;;;;;;5.60;2.35;;;22.80;47.10;;;;;;5031320;28;20207;-45
2022/11/08 03:58:40;;;;;;;5.38;2.95;;;22.90;47.20;;;;;;5014785;28;20203;-43
2022/11/08 04:01:11;;;;;;;8.02;3.45;;;22.90;47.20;;;;;;5010866;28;20208;-42
2022/11/08 04:03:41;;;;;;;9.13;4.20;;;22.90;47.20;;;;;;5010695;28;20185;-44
2022/11/08 04:06:12;;;;;;;8.77;4.85;;;23.00;47.10;;;;;;5010630;28;20666;-45
2022/11/08 04:08:43;;;;;;;8.85;4.88;;;23.00;47.20;;;;;;5009435;28;20262;-45
2022/11/08 04:16:49;;;;;;;15.20;6.57;;;23.00;46.40;;;;;;5017388;28;20231;-48
2022/11/08 04:22:07;;;;;;;10.93;6.40;;;23.00;46.10;;;;;;5017579;28;20191;-44
2022/11/08 04:24:38;;;;;;;12.95;6.70;;;23.10;46.20;;;;;;5016348;28;20787;-46
2022/11/08 04:27:11;;;;;;;9.80;5.57;;;23.10;46.40;;;;;;5012929;28;20189;-42
2022/11/08 04:29:41;;;;;;;7.70;5.00;;;23.10;46.50;;;;;;4997548;28;20662;-42
2022/11/08 04:32:12;;;;;;;11.50;5.97;;;23.10;46.60;;;;;;4997087;28;20220;-44
2022/11/08 04:34:43;;;;;;;9.10;5.85;;;23.20;46.60;;;;;;5016126;28;20196;-42
2022/11/08 04:37:14;;;;;;;8.85;5.50;;;23.20;46.50;;;;;;5013772;28;20205;-44
2022/11/08 04:39:44;;;;;;;9.63;6.18;;;23.20;46.60;;;;;;5010530;28;20224;-42
2022/11/08 04:42:17;;;;;;;8.45;6.03;;;23.20;46.50;;;;;;4997111;28;20661;-42
2022/11/08 04:44:48;;;;;;;11.15;5.60;;;23.30;46.30;;;;;;4999117;28;20649;-44
2022/11/08 04:47:18;;;;;;;9.25;6.00;;;23.30;46.00;;;;;;5037410;23;20235;-55
2022/11/08 04:49:49;;;;;;;10.80;5.93;;;23.30;45.80;;;;;;5016533;28;20231;-54
2022/11/08 04:52:20;;;;;;;11.05;6.60;;;23.30;45.50;;;;;;5016772;28;20197;-51
2022/11/08 04:54:51;;;;;;;10.90;6.15;;;23.30;45.40;;;;;;5016132;28;20208;-55
2022/11/08 04:57:24;;;;;;;8.35;5.78;;;23.30;45.20;;;;;;5016754;28;20201;-52
2022/11/08 04:59:57;;;;;;;10.23;6.07;;;23.40;45.10;;;;;;5016463;28;20220;-57
2022/11/08 05:02:28;;;;;;;8.77;5.80;;;23.40;45.00;;;;;;5016833;28;20200;-57
2022/11/08 05:04:59;;;;;;;9.30;5.82;;;23.40;45.20;;;;;;5017028;28;20570;-51
2022/11/08 05:07:31;;;;;;;11.07;6.53;;;23.40;45.80;;;;;;5018841;28;20559;-53
2022/11/08 05:10:02;;;;;;;9.30;5.55;;;23.40;45.30;;;;;;5036490;28;20219;-55
2022/11/08 05:12:34;;;;;;;6.97;4.70;;;23.40;45.30;;;;;;5037043;28;20742;-56
2022/11/08 05:15:05;;;;;;;6.35;4.63;;;23.40;45.40;;;;;;5037199;28;20223;-57
2022/11/08 05:17:36;;;;;;;6.60;4.60;;;23.50;45.40;;;;;;5036960;28;20545;-55
2022/11/08 05:25:45;;;;;;;7.65;3.97;;;23.50;44.90;;;;;;5015645;28;20228;-57
2022/11/08 05:28:18;;;;;;;7.88;4.20;;;23.50;44.80;;;;;;5024425;28;20201;-54
2022/11/08 05:30:55;;;;;;;5.10;3.70;;;23.50;44.80;;;;;;5031630;28;20235;-56
2022/11/08 05:33:26;;;;;;;5.15;3.38;;;23.50;44.80;;;;;;5033333;28;20188;-56
2022/11/08 05:36:01;;;;;;;6.43;3.63;;;23.50;44.70;;;;;;5017881;28;20201;-58
2022/11/08 05:38:34;;;;;;;5.40;3.33;;;23.60;44.80;;;;;;5022383;28;20188;-55
2022/11/08 05:41:09;;;;;;;5.65;3.30;;;23.50;44.80;;;;;;5013011;28;20205;-57
2022/11/08 05:43:41;;;;;;;5.03;3.47;;;23.60;44.90;;;;;;5018624;28;20191;-53
2022/11/08 05:46:13;;;;;;;5.40;3.63;;;23.60;44.80;;;;;;5040165;23;20331;-48
2022/11/08 05:48:46;;;;;;;7.43;3.60;;;23.60;44.80;;;;;;5013306;28;20562;-45
2022/11/08 05:51:17;;;;;;;6.70;3.83;;;23.60;44.90;;;;;;5012850;28;20232;-47
2022/11/08 05:53:48;;;;;;;9.50;5.53;;;23.60;44.80;;;;;;5013449;28;20269;-44
2022/11/08 05:56:19;;;;;;;9.73;6.40;;;23.60;44.90;;;;;;5013466;28;20197;-45
2022/11/08 05:58:52;;;;;;;10.15;5.60;;;23.60;44.90;;;;;;5013336;28;20559;-50
2022/11/08 06:01:23;;;;;;;9.88;5.20;;;23.60;44.90;;;;;;5013172;28;20280;-50
2022/11/08 06:03:54;;;;;;;8.52;5.22;;;23.60;45.00;;;;;;5012904;28;20276;-46
2022/11/08 06:06:25;;;;;;;7.50;5.28;;;23.60;45.00;;;;;;5013232;28;20200;-47
2022/11/08 06:08:55;;;;;;;7.60;4.75;;;23.60;45.00;;;;;;4995908;28;20722;-47
2022/11/08 06:11:27;;;;;;;7.03;4.85;;;23.60;45.10;;;;;;4993227;28;20229;-49
2022/11/08 06:14:01;;;;;;;7.20;4.75;;;23.60;45.10;;;;;;4992613;28;20193;-47
2022/11/08 06:16:31;;;;;;;5.35;4.32;;;23.60;45.10;;;;;;4993072;28;20198;-45
2022/11/08 06:19:02;;;;;;;6.70;4.47;;;23.60;45.10;;;;;;4992978;28;20213;-47
2022/11/08 06:21:33;;;;;;;5.70;4.40;;;23.60;45.00;;;;;;4992991;28;20208;-47
2022/11/08 06:24:04;;;;;;;5.88;4.40;;;23.60;45.10;;;;;;4995574;28;20203;-44
2022/11/08 06:26:35;;;;;;;7.18;4.60;;;23.60;45.10;;;;;;5013489;28;20211;-46
2022/11/08 06:29:07;;;;;;;7.38;4.70;;;23.60;45.00;;;;;;5012608;28;20614;-44
2022/11/08 06:31:38;;;;;;;5.97;4.20;;;23.60;44.90;;;;;;5012650;28;20587;-48
2022/11/08 06:34:09;;;;;;;7.25;4.30;;;23.60;45.00;;;;;;5012630;28;20204;-47
2022/11/08 06:36:39;;;;;;;5.63;4.50;;;23.70;45.00;;;;;;5012456;28;20201;-53
2022/11/08 06:39:10;;;;;;;7.03;4.15;;;23.60;45.00;;;;;;4993504;28;20681;-43
2022/11/08 06:41:41;;;;;;;6.53;3.80;;;23.60;45.10;;;;;;4993746;28;20203;-51
2022/11/08 06:44:13;;;;;;;5.30;4.13;;;23.60;45.00;;;;;;4992792;28;20189;-47
2022/11/08 06:46:44;;;;;;;4.25;3.65;;;23.60;45.00;;;;;;4993432;28;20243;-48
2022/11/08 06:49:15;;;;;;;4.97;3.70;;;23.60;45.10;;;;;;4993116;28;20218;-45
2022/11/08 06:51:46;;;;;;;5.80;4.10;;;23.60;45.00;;;;;;4993372;28;20225;-44
2022/11/08 06:54:17;;;;;;;6.15;3.95;;;23.60;45.10;;;;;;4992264;28;20197;-45
2022/11/08 06:56:48;;;;;;;5.72;3.72;;;23.60;45.00;;;;;;4992875;28;20197;-44
2022/11/08 06:59:21;;;;;;;6.20;3.80;;;23.60;45.10;;;;;;4992941;28;20686;-43
2022/11/08 07:01:52;;;;;;;4.30;3.88;;;23.60;45.10;;;;;;4993021;28;20205;-48
2022/11/08 07:04:23;;;;;;;4.72;3.85;;;23.50;45.10;;;;;;4993229;28;20212;-45
2022/11/08 07:06:54;;;;;;;6.97;4.22;;;23.50;45.10;;;;;;4992862;28;20197;-48
2022/11/08 07:09:24;;;;;;;6.28;3.92;;;23.50;45.10;;;;;;4993177;28;20218;-49
2022/11/08 07:11:55;;;;;;;5.30;4.35;;;23.50;45.10;;;;;;4982417;28;20226;-46
2022/11/08 07:14:28;;;;;;;6.68;4.10;;;23.50;45.10;;;;;;4990946;28;20212;-48
2022/11/08 07:16:59;;;;;;;5.25;3.72;;;23.50;45.20;;;;;;4992956;28;20193;-49
2022/11/08 07:19:30;;;;;;;4.68;3.70;;;23.50;45.20;;;;;;4992933;28;20216;-45
2022/11/08 07:22:01;;;;;;;5.30;3.58;;;23.40;45.10;;;;;;4992922;28;20711;-46
2022/11/08 07:24:32;;;;;;;5.20;3.88;;;23.40;45.10;;;;;;4992631;28;20212;-43
2022/11/08 07:27:02;;;;;;;4.32;3.78;;;23.40;45.20;;;;;;4992638;28;20198;-44
2022/11/08 07:29:35;;;;;;;5.38;4.00;;;23.40;45.30;;;;;;4992004;28;20225;-43
2022/11/08 07:32:06;;;;;;;6.38;4.03;;;23.40;45.30;;;;;;4985655;28;20795;-43
2022/11/08 07:34:37;;;;;;;5.43;3.95;;;23.30;45.30;;;;;;4991558;28;20276;-43
2022/11/08 07:37:08;;;;;;;4.15;3.53;;;23.30;45.30;;;;;;4989655;28;20225;-45
2022/11/08 07:39:39;;;;;;;4.65;3.88;;;23.30;45.30;;;;;;4972177;28;20222;-45
2022/11/08 07:42:10;;;;;;;4.75;3.45;;;23.30;45.30;;;;;;4985158;28;20201;-43
2022/11/08 07:44:42;;;;;;;4.30;3.72;;;23.30;45.40;;;;;;4991734;28;20197;-43
2022/11/08 07:47:13;;;;;;;6.47;3.63;;;23.30;45.40;;;;;;4992250;28;20213;-43
2022/11/08 07:49:43;;;;;;;5.65;3.47;;;23.20;45.30;;;;;;4984618;28;20217;-43
2022/11/08 07:52:15;;;;;;;4.20;3.58;;;23.20;45.40;;;;;;4984627;28;20221;-43
2022/11/08 07:54:46;;;;;;;4.93;3.92;;;23.20;45.40;;;;;;4971881;28;20203;-45
2022/11/08 07:57:17;;;;;;;4.90;3.85;;;23.10;45.40;;;;;;4984489;28;20189;-46
2022/11/08 07:59:50;;;;;;;5.13;3.70;;;23.10;45.40;;;;;;4991845;28;20221;-43
2022/11/08 08:02:20;;;;;;;4.15;3.20;;;23.10;45.50;;;;;;4991519;28;20204;-45
2022/11/08 08:04:51;;;;;;;4.63;3.53;;;23.10;45.50;;;;;;4991843;28;20200;-44
2022/11/08 08:07:22;;;;;;;4.47;3.85;;;23.00;45.40;;;;;;4990890;28;20204;-43
2022/11/08 08:09:53;;;;;;;4.22;3.55;;;23.00;45.50;;;;;;4991708;28;20217;-45
2022/11/08 08:12:24;;;;;;;4.32;3.17;;;23.00;45.60;;;;;;4991207;28;20252;-46
2022/11/08 08:14:57;;;;;;;5.10;3.35;;;23.00;45.60;;;;;;4991349;28;20422;-46
2022/11/08 08:17:28;;;;;;;4.82;3.70;;;22.90;45.50;;;;;;4990775;28;20193;-44
2022/11/08 08:19:58;;;;;;;5.95;3.90;;;22.90;45.50;;;;;;4990157;28;20304;-45
2022/11/08 08:22:29;;;;;;;4.95;3.25;;;22.90;45.50;;;;;;4990577;28;20201;-46
2022/11/08 08:25:00;;;;;;;4.30;3.53;;;22.90;45.50;;;;;;4990575;28;20205;-45
2022/11/08 08:27:32;;;;;;;3.45;3.10;;;22.90;45.60;;;;;;5001026;28;20193;-44
2022/11/08 08:30:04;;;;;;;3.42;3.13;;;22.80;45.60;;;;;;5009839;28;20224;-46
2022/11/08 08:32:35;;;;;;;4.65;3.33;;;22.80;45.60;;;;;;5010572;28;20229;-48
2022/11/08 08:35:06;;;;;;;4.13;3.33;;;22.80;45.60;;;;;;5009992;28;20197;-45
2022/11/08 08:37:37;;;;;;;3.35;3.03;;;22.70;45.60;;;;;;5003747;28;20198;-45
2022/11/08 08:40:09;;;;;;;4.13;3.28;;;22.70;45.60;;;;;;4991190;28;20222;-46
2022/11/08 08:42:39;;;;;;;3.58;2.90;;;22.70;46.30;;;;;;4990040;28;20197;-47
2022/11/08 08:45:13;;;;;;;3.20;2.90;;;22.70;45.70;;;;;;4991517;28;20198;-47
2022/11/08 08:47:43;;;;;;;3.42;3.10;;;22.60;45.70;;;;;;5017206;23;20227;-50
2022/11/08 08:50:14;;;;;;;3.10;2.75;;;22.60;45.70;;;;;;5010659;28;20217;-56
2022/11/08 08:52:45;;;;;;;4.13;3.05;;;22.60;45.70;;;;;;4994558;28;20700;-56
2022/11/08 08:55:16;;;;;;;5.20;3.35;;;22.60;45.80;;;;;;4991279;28;20665;-51
2022/11/08 08:57:47;;;;;;;3.70;2.95;;;22.50;45.70;;;;;;4977360;28;20198;-52
2022/11/08 09:00:21;;;;;;;3.17;2.65;;;22.50;45.80;;;;;;4971479;28;20225;-58
2022/11/08 09:02:54;;;;;;;3.55;2.90;;;22.50;45.80;;;;;;4988546;28;20687;-54
2022/11/08 09:05:28;;;;;;;4.50;2.72;;;22.50;45.80;;;;;;4994397;28;20616;-53
2022/11/08 09:07:58;;;;;;;3.53;2.75;;;22.40;45.80;;;;;;4979614;28;20221;-56
2022/11/08 09:10:29;;;;;;;4.30;3.15;;;22.40;45.80;;;;;;4975370;28;20222;-59
2022/11/08 09:13:00;;;;;;;4.05;2.90;;;22.40;45.90;;;;;;4989861;28;20590;-56
2022/11/08 09:15:33;;;;;;;3.67;2.80;;;22.40;45.90;;;;;;4994075;28;20198;-53
2022/11/08 09:18:04;;;;;;;3.67;2.90;;;22.30;45.90;;;;;;4993411;28;20201;-48
2022/11/08 09:20:34;;;;;;;4.28;2.78;;;22.30;45.90;;;;;;4994060;28;20213;-54
2022/11/08 09:23:05;;;;;;;4.40;2.72;;;22.30;46.60;;;;;;4979586;28;20454;-52
2022/11/08 09:25:36;;;;;;;3.15;2.70;;;22.30;46.00;;;;;;4974777;28;20202;-52
2022/11/08 09:28:08;;;;;;;4.32;2.72;;;22.30;46.00;;;;;;4980491;28;20216;-57
2022/11/08 09:30:41;;;;;;;3.17;2.70;;;22.20;45.90;;;;;;4993940;28;20617;-62
2022/11/08 09:33:12;;;;;;;3.55;2.60;;;22.20;45.90;;;;;;4978879;28;20222;-59
2022/11/08 09:35:42;;;;;;;2.92;2.10;;;22.20;45.90;;;;;;4974692;28;20222;-52
2022/11/08 09:38:13;;;;;;;4.13;2.50;;;22.10;45.90;;;;;;4974967;28;20209;-56
2022/11/08 09:40:51;;;;;;;3.83;2.35;;;22.10;46.00;;;;;;4973864;28;20222;-50
2022/11/08 09:43:51;;;;;;;3.10;2.42;;;22.10;46.00;;;;;;4990011;28;20197;-58
2022/11/08 09:46:32;;;;;;;3.67;2.83;;;22.00;46.00;;;;;;5010674;23;20224;-43
2022/11/08 09:49:04;;;;;;;3.00;2.70;;;22.00;46.00;;;;;;4992853;28;20225;-42
2022/11/08 09:51:38;;;;;;;2.70;2.17;;;22.00;46.00;;;;;;4995191;28;20723;-42
2022/11/08 09:54:14;;;;;;;3.35;2.40;;;21.90;46.10;;;;;;5013601;28;20204;-44
2022/11/08 09:56:45;;;;;;;2.60;2.33;;;22.00;46.10;;;;;;5013696;28;20200;-42
2022/11/08 09:59:29;;;;;;;2.60;2.40;;;21.90;46.10;;;;;;5013067;28;20217;-42
2022/11/08 10:02:02;;;;;;;2.92;2.50;;;21.90;46.10;;;;;;5013336;28;20193;-42
2022/11/08 10:04:34;;;;;;;2.83;2.28;;;21.90;46.10;;;;;;5012892;28;20581;-43
2022/11/08 10:07:16;;;;;;;3.20;2.50;;;21.80;46.10;;;;;;5012728;28;20204;-43
2022/11/08 10:10:20;;;;;;;3.03;2.45;;;21.80;46.10;;;;;;5012772;28;20588;-44
2022/11/08 10:13:01;;;;;;;3.15;2.22;;;21.70;46.10;;;;;;5011607;28;20227;-42
2022/11/08 10:15:39;;;;;;;3.67;2.55;;;21.70;46.20;;;;;;5013266;28;20197;-42
2022/11/08 10:18:46;;;;;;;3.60;2.40;;;21.70;46.20;;;;;;5012608;28;20235;-43
2022/11/08 10:21:33;;;;;;;2.92;2.47;;;21.60;46.20;;;;;;4988102;28;20660;-43
2022/11/08 10:24:10;;;;;;;3.35;2.42;;;21.60;46.30;;;;;;5013501;28;20196;-44
2022/11/08 10:26:45;;;;;;;3.97;2.50;;;21.60;46.30;;;;;;5012553;28;20188;-43
2022/11/08 10:29:21;;;;;;;2.92;2.20;;;21.50;46.30;;;;;;5013251;28;20266;-43
2022/11/08 10:31:59;;;;;;;2.20;1.90;;;21.50;46.40;;;;;;5012688;28;20225;-43
2022/11/08 10:34:37;;;;;;;2.22;1.85;;;21.50;46.40;;;;;;5011991;28;20204;-42
2022/11/08 10:37:16;;;;;;;3.08;2.13;;;21.50;46.40;;;;;;5012785;28;20222;-43
2022/11/08 10:39:53;;;;;;;3.20;2.50;;;21.40;46.40;;;;;;5012432;28;20597;-43
2022/11/08 10:42:36;;;;;;;2.88;2.28;;;21.40;46.50;;;;;;5012018;28;20181;-42
2022/11/08 10:45:07;;;;;;;2.63;2.00;;;21.40;46.50;;;;;;5012505;28;20200;-45
2022/11/08 10:47:39;;;;;;;2.83;1.98;;;21.40;46.50;;;;;;5013277;28;20193;-42
2022/11/08 10:50:17;;;;;;;3.55;2.20;;;21.40;46.60;;;;;;5012309;28;20267;-42
2022/11/08 10:52:55;;;;;;;2.95;2.00;;;21.30;46.60;;;;;;5018376;28;20239;-43
2022/11/08 10:55:32;;;;;;;2.25;1.85;;;21.30;46.60;;;;;;5011764;28;20661;-43
2022/11/08 10:58:03;;;;;;;2.70;2.00;;;21.30;46.60;;;;;;5012965;28;20197;-47
2022/11/08 11:00:36;;;;;;;3.47;2.20;;;21.20;46.70;;;;;;5011950;28;20707;-46
2022/11/08 11:03:28;;;;;;;3.00;2.10;;;21.20;46.70;;;;;;5012616;28;20203;-47
2022/11/08 11:06:01;;;;;;;3.25;2.17;;;21.20;46.70;;;;;;4993128;28;20200;-45
2022/11/08 11:08:34;;;;;;;1.88;1.75;;;21.20;46.70;;;;;;5006671;28;20201;-45
2022/11/08 11:11:28;;;;;;;2.53;1.80;;;21.20;46.70;;;;;;5012619;28;20675;-46
2022/11/08 11:14:25;;;;;;;2.35;1.98;;;21.10;46.60;;;;;;5012627;28;20576;-50
2022/11/08 11:17:02;;;;;;;2.47;2.10;;;21.10;46.70;;;;;;4978655;28;20201;-44
2022/11/08 11:19:33;;;;;;;2.85;2.03;;;21.00;46.70;;;;;;5012633;28;20253;-46
2022/11/08 11:22:07;;;;;;;3.13;1.83;;;21.10;46.80;;;;;;5012489;28;20207;-43
2022/11/08 11:24:49;;;;;;;2.95;1.92;;;21.00;46.80;;;;;;5011564;28;20603;-43
2022/11/08 11:27:25;;;;;;;2.97;2.05;;;21.00;46.80;;;;;;5011939;28;20444;-49
2022/11/08 11:30:23;;;;;;;1.90;1.70;;;20.90;46.90;;;;;;5011726;28;20590;-43
2022/11/08 11:33:05;;;;;;;3.47;2.10;;;20.90;46.90;;;;;;5012102;28;20243;-47
2022/11/08 11:35:48;;;;;;;2.88;1.70;;;20.90;46.90;;;;;;5012516;28;20204;-48
2022/11/08 11:38:30;;;;;;;2.92;1.80;;;20.90;46.90;;;;;;5012044;28;20196;-51
2022/11/08 11:41:08;;;;;;;2.75;1.80;;;20.90;46.90;;;;;;5011914;28;20201;-43
2022/11/08 11:43:45;;;;;;;1.95;1.50;;;20.90;46.90;;;;;;5012154;28;20223;-42
2022/11/08 11:46:22;;;;;;;2.92;1.67;;;20.90;46.90;;;;;;5012650;28;20208;-45
2022/11/08 11:49:00;;;;;;;2.05;1.73;;;20.80;46.90;;;;;;5012342;28;20247;-47
2022/11/08 11:51:32;;;;;;;2.03;1.50;;;20.80;47.50;;;;;;5012078;28;20284;-45
2022/11/08 11:54:04;;;;;;;2.92;1.92;;;20.80;46.90;;;;;;5012088;28;20196;-50
2022/11/08 11:56:54;;;;;;;2.42;1.88;;;20.70;46.90;;;;;;5011610;28;20201;-50
2022/11/08 11:59:47;;;;;;;1.92;1.60;;;20.70;46.90;;;;;;5011282;28;20224;-48
2022/11/08 12:02:46;;;;;;;3.42;1.90;;;20.70;46.90;;;;;;5011393;28;20735;-48
2022/11/08 12:05:47;;;;;;;2.42;1.92;;;20.70;46.90;;;;;;5011914;28;20207;-48
2022/11/08 12:08:28;;;;;;;1.77;1.60;;;20.70;47.00;;;;;;4999300;28;20719;-51
2022/11/08 12:11:10;;;;;;;2.20;1.50;;;20.70;47.00;;;;;;5011644;28;20208;-49
2022/11/08 12:13:54;;;;;;;1.95;1.58;;;20.60;47.00;;;;;;5011579;28;20231;-52
2022/11/08 12:16:29;;;;;;;1.92;1.50;;;20.60;47.00;;;;;;5011684;28;20207;-43
2022/11/08 12:19:12;;;;;;;2.47;2.17;;;20.60;47.00;;;;;;5011663;28;20721;-46
2022/11/08 12:21:49;;;;;;;2.53;1.65;;;20.60;47.00;;;;;;5011544;28;20196;-46
2022/11/08 12:24:40;;;;;;;2.58;2.00;;;20.60;47.00;;;;;;5011101;28;20216;-45
2022/11/08 12:27:20;;;;;;;2.30;1.70;;;20.50;47.00;;;;;;5010883;28;20205;-45
2022/11/08 12:30:00;;;;;;;1.92;1.70;;;20.50;47.00;;;;;;5010885;28;20220;-43
2022/11/08 12:32:52;;;;;;;2.75;1.88;;;20.50;47.00;;;;;;5010779;28;20599;-42
2022/11/08 12:35:34;;;;;;;3.33;1.60;;;20.50;47.10;;;;;;5010999;28;20203;-46
2022/11/08 12:38:23;;;;;;;2.63;1.63;;;20.40;47.00;;;;;;5014793;28;20212;-43
2022/11/08 12:41:00;;;;;;;2.55;1.58;;;20.40;47.10;;;;;;5014985;28;20303;-47
2022/11/08 12:43:52;;;;;;;2.13;1.60;;;20.40;47.10;;;;;;5015005;28;20192;-45
2022/11/08 12:46:26;;;;;;;1.75;1.50;;;20.40;47.10;;;;;;5015303;28;20205;-47
2022/11/08 12:49:19;;;;;;;3.13;1.60;;;20.30;47.00;;;;;;5014689;28;20216;-47
2022/11/08 12:52:10;;;;;;;1.80;1.50;;;20.30;47.10;;;;;;5017681;28;20201;-45
2022/11/08 12:54:43;;;;;;;1.73;1.30;;;20.30;47.10;;;;;;5015301;28;20200;-45
2022/11/08 12:57:16;;;;;;;1.90;1.40;;;20.30;47.10;;;;;;5014739;28;20197;-44
2022/11/08 12:59:50;;;;;;;2.08;1.42;;;20.30;47.10;;;;;;5014683;28;20584;-47
2022/11/08 13:02:25;;;;;;;1.92;1.30;;;20.20;47.10;;;;;;5016878;28;20530;-43
2022/11/08 13:05:02;;;;;;;3.15;1.70;;;20.20;47.10;;;;;;5015178;28;20200;-46
2022/11/08 13:07:41;;;;;;;1.67;1.55;;;20.20;47.10;;;;;;5015119;28;20200;-47
2022/11/08 13:10:21;;;;;;;3.22;1.35;;;20.10;47.10;;;;;;5014533;28;20227;-44
2022/11/08 13:13:07;;;;;;;1.95;1.48;;;20.10;47.10;;;;;;5014046;28;20283;-44
2022/11/08 13:15:38;;;;;;;2.22;1.52;;;20.10;47.20;;;;;;5014203;28;20384;-46
2022/11/08 13:18:34;;;;;;;2.17;1.60;;;20.10;47.20;;;;;;5014343;28;20192;-50
2022/11/08 13:21:37;;;;;;;1.83;1.38;;;20.10;47.10;;;;;;5014698;28;20213;-46
2022/11/08 13:24:40;;;;;;;2.58;1.50;;;20.10;47.10;;;;;;5014271;28;20196;-46
2022/11/08 13:27:25;;;;;;;2.15;1.55;;;20.10;47.10;;;;;;5003656;28;20573;-44
2022/11/08 13:29:59;;;;;;;3.20;1.60;;;20.10;47.10;;;;;;5013403;28;20216;-52
2022/11/08 13:32:41;;;;;;;1.98;1.33;;;20.00;47.10;;;;;;5014120;28;20224;-45
2022/11/08 13:35:21;;;;;;;1.98;1.60;;;20.00;47.10;;;;;;5014406;28;20223;-45
2022/11/08 13:38:02;;;;;;;2.75;1.55;;;20.00;47.10;;;;;;5014519;28;20209;-46
2022/11/08 13:41:15;;;;;;;1.58;1.20;;;20.00;47.10;;;;;;5014235;28;20224;-45
2022/11/08 13:43:47;;;;;;;2.65;1.35;;;19.90;47.10;;;;;;4999425;28;20220;-44
2022/11/08 13:46:48;;;;;;;2.00;1.48;;;19.90;47.10;;;;;;5014176;28;20223;-47
2022/11/08 13:49:21;;;;;;;2.05;1.40;;;19.90;47.10;;;;;;5013424;28;20610;-48
2022/11/08 13:52:31;;;;;;;1.48;1.13;;;19.90;47.70;;;;;;5014123;28;20287;-45